VOI211 MGGT-MMUN
Flight info
| Callsign | VOI211 |
|---|---|
| Flight time | N/A |
| Altitude | 39000 |
| Route | VILDA DCT AUR DCT VILDA VILDA VILDA DCT JERON DCT AMINU DCT CTM UG765 PAULE PAULE3H |
| Aircraft | A320/M-SDE3FGHIRWY/LB1 |
Departure
| Time | 2026-05-06 00:14 |
|---|---|
| Airport | La Aurora International Airport (MGGT) |
Arrival
| Time | N/A |
|---|---|
| Airport | Cancún International Airport (MMUN) |
| Time | Latitude | Longitude | Altitude | Speed | Heading |
|---|---|---|---|---|---|
| 2026-05-05 23:20 | 14.59086 | -90.52824 | 4940 ft | 0 kts | 284° |
| 2026-05-06 00:01 | 14.59082 | -90.52809 | 4944 ft | 3 kts | 285° |
| 2026-05-06 00:02 | 14.59076 | -90.52788 | 4943 ft | 3 kts | 289° |
| 2026-05-06 00:02 | 14.59069 | -90.52769 | 4941 ft | 3 kts | 296° |
| 2026-05-06 00:02 | 14.59059 | -90.52750 | 4942 ft | 3 kts | 312° |
| 2026-05-06 00:02 | 14.59044 | -90.52739 | 4942 ft | 3 kts | 1° |
| 2026-05-06 00:03 | 14.59035 | -90.52740 | 4941 ft | 1 kts | 17° |
| 2026-05-06 00:03 | 14.59034 | -90.52740 | 4941 ft | 0 kts | 17° |
| 2026-05-06 00:06 | 14.59035 | -90.52740 | 4941 ft | 0 kts | 15° |
| 2026-05-06 00:07 | 14.59036 | -90.52741 | 4941 ft | 1 kts | 1° |
| 2026-05-06 00:07 | 14.59026 | -90.52751 | 4938 ft | 4 kts | 182° |
| 2026-05-06 00:07 | 14.58982 | -90.52757 | 4937 ft | 8 kts | 195° |
| 2026-05-06 00:07 | 14.58912 | -90.52777 | 4935 ft | 12 kts | 197° |
| 2026-05-06 00:08 | 14.58824 | -90.52758 | 4934 ft | 15 kts | 142° |
| 2026-05-06 00:08 | 14.58802 | -90.52677 | 4933 ft | 10 kts | 35° |
| 2026-05-06 00:08 | 14.58864 | -90.52647 | 4935 ft | 10 kts | 17° |
| 2026-05-06 00:08 | 14.58930 | -90.52625 | 4936 ft | 10 kts | 18° |
| 2026-05-06 00:09 | 14.58995 | -90.52604 | 4938 ft | 9 kts | 16° |
| 2026-05-06 00:09 | 14.59056 | -90.52585 | 4940 ft | 9 kts | 17° |
| 2026-05-06 00:09 | 14.59113 | -90.52566 | 4942 ft | 9 kts | 19° |
| 2026-05-06 00:09 | 14.59170 | -90.52548 | 4943 ft | 9 kts | 19° |
| 2026-05-06 00:10 | 14.59227 | -90.52530 | 4944 ft | 9 kts | 17° |
| 2026-05-06 00:10 | 14.59284 | -90.52512 | 4943 ft | 9 kts | 19° |
| 2026-05-06 00:10 | 14.59338 | -90.52492 | 4944 ft | 8 kts | 14° |
| 2026-05-06 00:10 | 14.59388 | -90.52479 | 4947 ft | 7 kts | 15° |
| 2026-05-06 00:11 | 14.59432 | -90.52465 | 4949 ft | 5 kts | 17° |
| 2026-05-06 00:11 | 14.59467 | -90.52453 | 4948 ft | 5 kts | 21° |
| 2026-05-06 00:11 | 14.59502 | -90.52439 | 4951 ft | 6 kts | 18° |
| 2026-05-06 00:11 | 14.59541 | -90.52427 | 4950 ft | 6 kts | 17° |
| 2026-05-06 00:12 | 14.59580 | -90.52405 | 4950 ft | 6 kts | 53° |
| 2026-05-06 00:12 | 14.59572 | -90.52363 | 4951 ft | 7 kts | 141° |
| 2026-05-06 00:12 | 14.59538 | -90.52363 | 4950 ft | 1 kts | 200° |
| 2026-05-06 00:12 | 14.59509 | -90.52373 | 4951 ft | 12 kts | 197° |
| 2026-05-06 00:13 | 14.59295 | -90.52440 | 4944 ft | 60 kts | 197° |
| 2026-05-06 00:13 | 14.58683 | -90.52640 | 4931 ft | 121 kts | 197° |
| 2026-05-06 00:13 | 14.57727 | -90.52932 | 5012 ft | 160 kts | 197° |
| 2026-05-06 00:13 | 14.56610 | -90.53295 | 5476 ft | 177 kts | 197° |
| 2026-05-06 00:14 | 14.55350 | -90.53702 | 5943 ft | 201 kts | 196° |
| 2026-05-06 00:14 | 14.53934 | -90.54159 | 6366 ft | 225 kts | 197° |
| 2026-05-06 00:14 | 14.52350 | -90.54669 | 6742 ft | 251 kts | 197° |
| 2026-05-06 00:14 | 14.50580 | -90.55110 | 7159 ft | 274 kts | 183° |
| 2026-05-06 00:15 | 14.48653 | -90.54882 | 7806 ft | 284 kts | 160° |
| 2026-05-06 00:15 | 14.46931 | -90.53892 | 8640 ft | 287 kts | 136° |
| 2026-05-06 00:15 | 14.45639 | -90.52325 | 9479 ft | 289 kts | 123° |
| 2026-05-06 00:15 | 14.44466 | -90.50669 | 10384 ft | 291 kts | 123° |
| 2026-05-06 00:16 | 14.43328 | -90.48931 | 11192 ft | 293 kts | 116° |
| 2026-05-06 00:16 | 14.42557 | -90.46984 | 11963 ft | 294 kts | 103° |
| 2026-05-06 00:16 | 14.42237 | -90.44895 | 12752 ft | 296 kts | 91° |
| 2026-05-06 00:16 | 14.42372 | -90.42775 | 13499 ft | 298 kts | 79° |
| 2026-05-06 00:17 | 14.42970 | -90.40717 | 14215 ft | 302 kts | 67° |
| 2026-05-06 00:17 | 14.44020 | -90.38831 | 14846 ft | 306 kts | 54° |
| 2026-05-06 00:17 | 14.45497 | -90.37225 | 15500 ft | 311 kts | 41° |
| 2026-05-06 00:17 | 14.47318 | -90.35985 | 16172 ft | 317 kts | 28° |
| 2026-05-06 00:18 | 14.49367 | -90.35044 | 16578 ft | 331 kts | 25° |
| 2026-05-06 00:18 | 14.51546 | -90.34072 | 16699 ft | 352 kts | 25° |
| 2026-05-06 00:18 | 14.53852 | -90.33043 | 16831 ft | 370 kts | 25° |
| 2026-05-06 00:18 | 14.56270 | -90.31963 | 16962 ft | 386 kts | 25° |
| 2026-05-06 00:19 | 14.58765 | -90.30848 | 17328 ft | 394 kts | 25° |
| 2026-05-06 00:19 | 14.61300 | -90.29715 | 17824 ft | 399 kts | 25° |
| 2026-05-06 00:19 | 14.63859 | -90.28572 | 18342 ft | 403 kts | 25° |
| 2026-05-06 00:19 | 14.66405 | -90.27435 | 18828 ft | 406 kts | 25° |
| 2026-05-06 00:20 | 14.69006 | -90.26272 | 19297 ft | 409 kts | 25° |
| 2026-05-06 00:20 | 14.71626 | -90.25102 | 19771 ft | 411 kts | 25° |
| 2026-05-06 00:20 | 14.74261 | -90.23924 | 20227 ft | 414 kts | 25° |
| 2026-05-06 00:20 | 14.76911 | -90.22737 | 20672 ft | 417 kts | 25° |
| 2026-05-06 00:21 | 14.79584 | -90.21538 | 21130 ft | 420 kts | 25° |
| 2026-05-06 00:21 | 14.82275 | -90.20331 | 21572 ft | 423 kts | 25° |
| 2026-05-06 00:21 | 14.84984 | -90.19113 | 22000 ft | 426 kts | 26° |
| 2026-05-06 00:21 | 14.87684 | -90.17840 | 22412 ft | 428 kts | 27° |
| 2026-05-06 00:22 | 14.90382 | -90.16504 | 22817 ft | 431 kts | 28° |
| 2026-05-06 00:22 | 14.93080 | -90.15133 | 23210 ft | 434 kts | 28° |
| 2026-05-06 00:22 | 14.95793 | -90.13744 | 23597 ft | 436 kts | 28° |
| 2026-05-06 00:22 | 14.98492 | -90.12367 | 23902 ft | 439 kts | 28° |
| 2026-05-06 00:23 | 15.01245 | -90.10975 | 24238 ft | 441 kts | 28° |
| 2026-05-06 00:23 | 15.04020 | -90.09586 | 24576 ft | 443 kts | 27° |
| 2026-05-06 00:23 | 15.06803 | -90.08201 | 24918 ft | 445 kts | 27° |
| 2026-05-06 00:23 | 15.09602 | -90.06809 | 25261 ft | 447 kts | 27° |
| 2026-05-06 00:24 | 15.12413 | -90.05414 | 25607 ft | 449 kts | 27° |
| 2026-05-06 00:24 | 15.15236 | -90.04012 | 25948 ft | 451 kts | 27° |
| 2026-05-06 00:24 | 15.18071 | -90.02603 | 26290 ft | 453 kts | 27° |
| 2026-05-06 00:24 | 15.20910 | -90.01185 | 26609 ft | 455 kts | 27° |
| 2026-05-06 00:25 | 15.23774 | -89.99751 | 26935 ft | 457 kts | 27° |
| 2026-05-06 00:25 | 15.26641 | -89.98316 | 27239 ft | 459 kts | 27° |
| 2026-05-06 00:25 | 15.29484 | -89.96894 | 27557 ft | 461 kts | 27° |
| 2026-05-06 00:25 | 15.32377 | -89.95446 | 27892 ft | 463 kts | 27° |
| 2026-05-06 00:26 | 15.35281 | -89.93990 | 28237 ft | 465 kts | 27° |
| 2026-05-06 00:26 | 15.38199 | -89.92527 | 28577 ft | 467 kts | 26° |
| 2026-05-06 00:26 | 15.41132 | -89.91056 | 28920 ft | 469 kts | 26° |
| 2026-05-06 00:26 | 15.44068 | -89.89583 | 29441 ft | 467 kts | 26° |
| 2026-05-06 00:27 | 15.46995 | -89.88116 | 29978 ft | 465 kts | 26° |
| 2026-05-06 00:27 | 15.48925 | -89.87152 | 30303 ft | 464 kts | 26° |
| 2026-05-06 00:27 | 15.52808 | -89.85213 | 30888 ft | 462 kts | 26° |
| 2026-05-06 00:27 | 15.55700 | -89.83763 | 31321 ft | 461 kts | 26° |
| 2026-05-06 00:28 | 15.58587 | -89.82313 | 31762 ft | 460 kts | 26° |
| 2026-05-06 00:28 | 15.61462 | -89.80866 | 32210 ft | 460 kts | 26° |
| 2026-05-06 00:28 | 15.64334 | -89.79419 | 32663 ft | 458 kts | 26° |
| 2026-05-06 00:28 | 15.67203 | -89.77977 | 33132 ft | 458 kts | 26° |
| 2026-05-06 00:29 | 15.69103 | -89.77024 | 33444 ft | 457 kts | 26° |
| 2026-05-06 00:29 | 15.71963 | -89.75587 | 33931 ft | 456 kts | 26° |
| 2026-05-06 00:29 | 15.74810 | -89.74157 | 34349 ft | 454 kts | 26° |
| 2026-05-06 00:29 | 15.77656 | -89.72730 | 34777 ft | 454 kts | 26° |
| 2026-05-06 00:30 | 15.80496 | -89.71304 | 35180 ft | 453 kts | 26° |
| 2026-05-06 00:30 | 15.83330 | -89.69878 | 35572 ft | 453 kts | 25° |
| 2026-05-06 00:30 | 15.86166 | -89.68453 | 35952 ft | 453 kts | 25° |
| 2026-05-06 00:30 | 15.89005 | -89.67028 | 36308 ft | 453 kts | 25° |
| 2026-05-06 00:31 | 15.91848 | -89.65600 | 36650 ft | 454 kts | 25° |
| 2026-05-06 00:31 | 15.94692 | -89.64170 | 36981 ft | 455 kts | 25° |
| 2026-05-06 00:31 | 15.97503 | -89.62751 | 37303 ft | 455 kts | 25° |
| 2026-05-06 00:31 | 16.00357 | -89.61309 | 37642 ft | 456 kts | 24° |
| 2026-05-06 00:32 | 16.03214 | -89.59867 | 37957 ft | 457 kts | 24° |